Time;durP1;ratioP1;P1;durP2;ratioP2;P2;SDS_P1;SDS_P2;PMS_P1;PMS_P2;Temp;Humidity;BMP_temperature;BMP_pressure;BME280_temperature;BME280_humidity;BME280_pressure;Samples;Min_cycle;Max_cycle;Signal;HPM_P1;HPM_P2
2023/01/13 00:00:55;;;;;;;36.95;5.63;;;8.50;99.90;;;;;;5009785;28;20041;-73
2023/01/13 00:03:21;;;;;;;26.52;5.43;;;8.50;99.90;;;;;;5009078;28;20507;-75
2023/01/13 00:05:46;;;;;;;29.88;5.00;;;8.30;99.90;;;;;;5011526;28;20092;-75
2023/01/13 00:08:12;;;;;;;31.10;4.95;;;8.30;99.90;;;;;;5008845;28;20100;-75
2023/01/13 00:10:38;;;;;;;36.83;6.10;;;8.30;99.90;;;;;;5007598;28;20053;-75
2023/01/13 00:13:04;;;;;;;32.45;4.78;;;8.10;99.90;;;;;;5008304;28;20052;-75
2023/01/13 00:15:30;;;;;;;37.20;6.93;;;8.20;99.90;;;;;;5008711;28;20064;-74
2023/01/13 00:17:56;;;;;;;32.60;5.65;;;8.20;99.90;;;;;;5009324;28;20041;-74
2023/01/13 00:20:21;;;;;;;37.10;5.93;;;8.10;99.90;;;;;;5009080;28;20038;-74
2023/01/13 00:22:47;;;;;;;35.38;5.30;;;8.10;99.90;;;;;;5010384;28;20376;-75
2023/01/13 00:25:13;;;;;;;36.47;6.75;;;8.00;99.90;;;;;;5010330;28;20134;-74
2023/01/13 00:27:39;;;;;;;37.80;5.68;;;8.00;99.90;;;;;;5007993;28;20084;-74
2023/01/13 00:30:06;;;;;;;36.30;6.10;;;7.90;99.90;;;;;;5009854;28;20037;-74
2023/01/13 00:32:32;;;;;;;25.42;5.28;;;7.90;99.90;;;;;;5009364;28;20136;-75
2023/01/13 00:34:57;;;;;;;38.67;6.15;;;7.80;99.90;;;;;;5011612;28;20121;-74
2023/01/13 00:37:23;;;;;;;38.88;5.63;;;7.80;99.90;;;;;;5013669;28;20399;-74
2023/01/13 00:39:52;;;;;;;44.45;7.00;;;7.80;99.90;;;;;;5015278;28;20050;-75
2023/01/13 00:45:03;;;;;;;40.90;7.30;;;7.70;99.90;;;;;;5014550;28;20462;-74
2023/01/13 00:47:30;;;;;;;54.13;7.18;;;7.60;99.90;;;;;;5014391;28;20046;-74
2023/01/13 00:49:56;;;;;;;44.33;6.65;;;7.60;99.90;;;;;;5014884;28;20041;-74
2023/01/13 00:52:21;;;;;;;51.30;7.47;;;7.60;99.90;;;;;;5010352;28;20060;-74
2023/01/13 00:54:47;;;;;;;47.70;6.78;;;7.50;99.90;;;;;;5014652;28;20073;-74
2023/01/13 00:57:14;;;;;;;34.33;6.88;;;7.50;99.90;;;;;;5018247;28;20106;-74
2023/01/13 00:59:40;;;;;;;41.80;6.30;;;7.50;99.90;;;;;;5017447;28;20128;-74
2023/01/13 01:02:05;;;;;;;43.97;6.97;;;7.50;99.90;;;;;;5014750;28;20421;-74
2023/01/13 01:04:31;;;;;;;44.47;8.00;;;7.50;99.90;;;;;;5012192;28;20061;-73
2023/01/13 01:06:57;;;;;;;51.28;8.30;;;7.50;99.90;;;;;;5012773;28;20410;-74
2023/01/13 01:09:23;;;;;;;52.50;7.13;;;7.50;99.90;;;;;;5013333;28;20049;-74
2023/01/13 01:11:48;;;;;;;37.22;5.60;;;7.50;99.90;;;;;;5012829;28;20072;-75
2023/01/13 01:14:14;;;;;;;48.97;7.90;;;7.60;99.90;;;;;;5014121;28;20406;-74
2023/01/13 01:16:40;;;;;;;31.98;6.55;;;7.40;99.90;;;;;;5013225;28;20042;-75
2023/01/13 01:19:07;;;;;;;49.92;6.68;;;7.40;99.90;;;;;;5014370;28;20034;-75
2023/01/13 01:21:33;;;;;;;44.83;7.68;;;7.30;99.90;;;;;;5013058;28;20073;-74
2023/01/13 01:24:01;;;;;;;38.83;7.03;;;7.30;99.90;;;;;;5000990;28;20046;-75
2023/01/13 01:26:28;;;;;;;42.45;7.25;;;7.30;99.90;;;;;;5014772;28;20506;-75
2023/01/13 01:28:54;;;;;;;34.00;7.80;;;7.30;99.90;;;;;;5013958;28;20049;-75
2023/01/13 01:31:25;;;;;;;46.10;7.75;;;7.20;99.90;;;;;;5010992;28;20080;-75
2023/01/13 01:33:52;;;;;;;49.78;8.05;;;7.20;99.90;;;;;;5012243;28;20038;-74
2023/01/13 01:36:19;;;;;;;52.30;7.85;;;7.20;99.90;;;;;;5012504;28;20042;-74
2023/01/13 01:38:46;;;;;;;47.50;8.23;;;7.20;99.90;;;;;;5012637;28;20038;-73
2023/01/13 01:41:18;;;;;;;47.13;7.10;;;7.10;99.90;;;;;;5014196;28;20545;-74
2023/01/13 01:43:58;;;;;;;42.85;7.45;;;7.10;99.90;;;;;;5008866;28;20045;-74
2023/01/13 01:46:48;;;;;;;52.55;7.90;;;7.20;99.90;;;;;;5011094;28;20384;-74
2023/01/13 01:49:31;;;;;;;48.50;7.47;;;7.10;99.90;;;;;;5014157;28;20052;-75
2023/01/13 01:52:09;;;;;;;61.30;8.43;;;7.10;99.90;;;;;;5013442;28;20049;-74
2023/01/13 01:54:57;;;;;;;43.05;7.40;;;7.10;99.90;;;;;;5011109;28;20049;-75
2023/01/13 01:57:29;;;;;;;44.70;8.10;;;7.10;99.90;;;;;;5010697;28;20049;-74
2023/01/13 01:59:58;;;;;;;44.95;7.72;;;7.10;99.90;;;;;;5012589;28;20052;-74
2023/01/13 02:02:23;;;;;;;42.70;6.63;;;7.20;99.90;;;;;;5010887;28;20045;-75
2023/01/13 02:04:52;;;;;;;44.05;7.95;;;7.10;99.90;;;;;;5011959;28;20719;-74
2023/01/13 02:07:21;;;;;;;49.90;7.60;;;7.10;99.90;;;;;;5014470;28;20054;-74
2023/01/13 02:09:48;;;;;;;39.55;7.07;;;7.10;99.90;;;;;;5013892;28;20053;-73
2023/01/13 02:12:33;;;;;;;37.13;7.22;;;7.10;99.90;;;;;;5012576;28;20490;-74
2023/01/13 02:15:09;;;;;;;46.03;6.63;;;7.20;99.90;;;;;;5011073;28;20087;-74
2023/01/13 02:18:06;;;;;;;41.03;6.82;;;7.20;99.90;;;;;;5013659;28;20049;-75
2023/01/13 02:20:57;;;;;;;33.20;5.85;;;7.20;99.90;;;;;;4975369;28;20412;-73
2023/01/13 02:27:06;;;;;;;41.08;7.95;;;7.30;99.90;;;;;;5015049;28;20116;-75
2023/01/13 02:33:08;;;;;;;38.25;7.20;;;7.30;99.90;;;;;;5009400;28;20046;-75
2023/01/13 02:35:46;;;;;;;29.33;6.22;;;7.20;99.90;;;;;;5009128;28;20061;-74
2023/01/13 02:38:13;;;;;;;36.22;6.38;;;7.20;99.90;;;;;;5009012;28;20045;-74
2023/01/13 02:40:47;;;;;;;46.77;6.93;;;7.30;99.90;;;;;;5010284;28;20465;-75
2023/01/13 02:46:33;;;;;;;43.65;6.65;;;7.20;99.90;;;;;;5009131;28;20049;-75
2023/01/13 02:49:06;;;;;;;49.42;8.15;;;7.20;99.90;;;;;;5009629;28;20037;-73
2023/01/13 02:51:32;;;;;;;43.88;8.20;;;7.20;99.90;;;;;;5012235;28;20077;-74
2023/01/13 02:54:16;;;;;;;46.72;7.50;;;7.20;99.90;;;;;;5012100;28;20505;-74
2023/01/13 02:56:46;;;;;;;42.65;7.35;;;7.20;99.90;;;;;;5009327;28;20110;-74
2023/01/13 02:59:12;;;;;;;44.80;7.75;;;7.30;99.90;;;;;;5010680;28;20100;-75
2023/01/13 03:01:39;;;;;;;45.17;6.95;;;7.20;99.90;;;;;;5010805;28;20501;-76
2023/01/13 03:04:49;;;;;;;43.28;6.78;;;7.20;99.90;;;;;;5008784;28;20049;-74
2023/01/13 03:07:55;;;;;;;39.53;7.28;;;7.20;99.90;;;;;;5004397;28;20054;-75
2023/01/13 03:10:40;;;;;;;40.58;7.07;;;7.30;99.90;;;;;;5009416;28;20041;-74
2023/01/13 03:13:30;;;;;;;32.78;6.40;;;7.30;99.90;;;;;;5009925;28;20045;-74
2023/01/13 03:16:19;;;;;;;40.85;6.95;;;7.40;99.90;;;;;;5010242;28;20048;-74
2023/01/13 03:19:11;;;;;;;39.33;6.57;;;7.50;99.90;;;;;;5008217;28;20487;-74
2023/01/13 03:21:56;;;;;;;36.85;5.63;;;7.50;99.90;;;;;;5011283;28;20076;-74
2023/01/13 03:24:26;;;;;;;38.33;6.40;;;7.40;99.90;;;;;;5011718;28;20041;-74
2023/01/13 03:27:03;;;;;;;54.78;7.90;;;7.40;99.90;;;;;;5012159;28;20046;-74
2023/01/13 03:29:37;;;;;;;46.65;7.18;;;7.40;99.90;;;;;;5009152;28;20064;-74
2023/01/13 03:32:30;;;;;;;39.60;7.20;;;7.40;99.90;;;;;;5008092;28;20078;-74
2023/01/13 03:35:27;;;;;;;49.67;8.18;;;7.40;99.90;;;;;;5010522;28;20061;-74
2023/01/13 03:38:05;;;;;;;38.15;6.03;;;7.30;99.90;;;;;;5011400;28;20395;-73
2023/01/13 03:40:40;;;;;;;32.75;5.30;;;7.30;99.90;;;;;;5012740;28;20041;-73
2023/01/13 03:46:03;;;;;;;38.00;6.38;;;7.30;99.90;;;;;;5009743;28;20050;-73
2023/01/13 03:48:32;;;;;;;33.80;5.55;;;7.30;99.90;;;;;;5010030;28;20133;-74
2023/01/13 03:51:06;;;;;;;44.15;7.28;;;7.40;99.90;;;;;;5010334;28;20492;-75
2023/01/13 03:53:42;;;;;;;36.22;5.60;;;7.40;99.90;;;;;;5029140;28;20100;-74
2023/01/13 03:56:38;;;;;;;35.83;6.13;;;7.40;99.90;;;;;;5015014;28;20041;-73
2023/01/13 03:59:07;;;;;;;40.90;6.75;;;7.40;99.90;;;;;;5010522;28;20049;-72
2023/01/13 04:01:47;;;;;;;41.83;6.20;;;7.40;99.90;;;;;;5010375;28;20041;-74
2023/01/13 04:04:20;;;;;;;49.53;6.30;;;7.40;99.90;;;;;;5010963;28;20034;-74
2023/01/13 04:07:11;;;;;;;32.22;5.60;;;7.40;99.90;;;;;;5010633;28;20069;-74
2023/01/13 04:09:46;;;;;;;36.05;6.88;;;7.40;99.90;;;;;;5007642;28;20044;-73
2023/01/13 04:15:19;;;;;;;47.63;6.68;;;7.30;99.90;;;;;;5007381;28;20409;-74
2023/01/13 04:17:44;;;;;;;29.80;5.35;;;7.20;99.90;;;;;;5012891;28;20046;-75
2023/01/13 04:20:10;;;;;;;47.72;7.18;;;7.20;99.90;;;;;;5008670;28;20042;-74
2023/01/13 04:22:36;;;;;;;36.97;6.22;;;7.20;99.90;;;;;;5011853;28;20124;-74
2023/01/13 04:25:01;;;;;;;38.22;6.05;;;7.20;99.90;;;;;;5010513;28;20441;-74
2023/01/13 04:27:27;;;;;;;40.38;6.75;;;7.20;99.90;;;;;;5009679;28;20042;-75
2023/01/13 04:29:53;;;;;;;41.13;6.82;;;7.10;99.90;;;;;;5009449;28;20038;-74
2023/01/13 04:32:18;;;;;;;45.75;6.85;;;7.10;99.90;;;;;;5009795;28;20472;-75
2023/01/13 04:34:44;;;;;;;45.08;7.97;;;7.10;99.90;;;;;;5006915;28;20136;-74
2023/01/13 04:37:10;;;;;;;37.22;6.28;;;7.10;99.90;;;;;;5012511;28;20042;-74
2023/01/13 04:39:36;;;;;;;46.80;6.43;;;7.20;99.90;;;;;;5009950;28;20452;-74
2023/01/13 04:42:01;;;;;;;39.75;6.13;;;7.20;99.90;;;;;;5009998;28;20045;-74
2023/01/13 04:44:29;;;;;;;40.35;6.25;;;7.20;99.90;;;;;;5007508;28;20402;-74
2023/01/13 04:46:56;;;;;;;38.05;6.57;;;7.30;99.90;;;;;;5006557;28;20038;-74
2023/01/13 04:49:21;;;;;;;52.38;7.25;;;7.30;99.90;;;;;;5011618;28;20037;-73
2023/01/13 04:51:47;;;;;;;41.63;6.90;;;7.30;99.90;;;;;;5011269;28;20038;-73
2023/01/13 04:54:13;;;;;;;46.05;7.25;;;7.50;99.90;;;;;;5008882;28;20065;-74
2023/01/13 04:56:39;;;;;;;33.95;5.97;;;7.40;99.90;;;;;;5025470;28;20136;-75
2023/01/13 04:59:04;;;;;;;38.70;5.20;;;7.50;99.90;;;;;;5011611;28;20483;-74
2023/01/13 05:01:30;;;;;;;40.28;6.22;;;7.50;99.90;;;;;;5011699;28;20044;-74
2023/01/13 05:03:55;;;;;;;41.92;6.50;;;7.50;99.90;;;;;;5011717;28;20124;-74
2023/01/13 05:06:21;;;;;;;45.33;6.13;;;7.50;99.90;;;;;;5012771;28;20046;-74
2023/01/13 05:08:47;;;;;;;32.22;5.50;;;7.60;99.90;;;;;;5012745;28;20045;-74
2023/01/13 05:16:59;;;;;;;39.40;6.32;;;7.60;99.90;;;;;;5013794;28;20061;-74
2023/01/13 05:19:33;;;;;;;38.88;6.13;;;7.70;99.90;;;;;;5013349;28;20128;-74
2023/01/13 05:27:29;;;;;;;41.50;6.65;;;7.70;99.90;;;;;;5017490;28;20049;-74
2023/01/13 05:29:55;;;;;;;34.80;6.10;;;7.80;99.90;;;;;;5012219;28;20046;-74
2023/01/13 05:32:22;;;;;;;35.92;6.25;;;7.80;99.90;;;;;;5014624;28;20076;-73
2023/01/13 05:34:48;;;;;;;38.47;6.35;;;7.80;99.90;;;;;;5013197;28;20044;-73
2023/01/13 05:37:13;;;;;;;34.90;5.95;;;7.80;99.90;;;;;;5008431;28;20138;-74
2023/01/13 05:45:09;;;;;;;39.75;5.22;;;7.80;99.90;;;;;;5010789;28;20049;-74
2023/01/13 05:47:34;;;;;;;32.17;6.03;;;7.80;99.90;;;;;;5009657;28;20135;-73
2023/01/13 05:50:00;;;;;;;28.70;5.07;;;7.90;99.90;;;;;;5010830;28;20077;-74
2023/01/13 05:52:26;;;;;;;31.98;5.93;;;7.80;99.90;;;;;;5017568;28;20049;-74
2023/01/13 05:54:52;;;;;;;26.02;4.65;;;7.90;99.90;;;;;;5013888;28;20084;-73
2023/01/13 05:57:17;;;;;;;27.20;4.40;;;7.80;99.90;;;;;;5014235;28;20072;-74
2023/01/13 05:59:43;;;;;;;23.55;4.13;;;7.90;99.90;;;;;;5012961;28;20080;-74
2023/01/13 06:02:08;;;;;;;33.72;5.40;;;7.90;99.90;;;;;;5012918;28;20046;-74
2023/01/13 06:04:34;;;;;;;40.85;5.57;;;7.90;99.90;;;;;;5011382;28;20069;-74
2023/01/13 06:07:00;;;;;;;45.88;6.70;;;7.90;99.90;;;;;;5013148;28;20088;-76
2023/01/13 06:09:25;;;;;;;30.27;5.90;;;7.90;99.90;;;;;;5008608;28;20558;-74
2023/01/13 06:11:51;;;;;;;37.35;5.28;;;7.90;99.90;;;;;;5011433;28;20122;-73
2023/01/13 06:14:16;;;;;;;28.20;5.30;;;7.90;99.90;;;;;;5011445;28;20041;-73
2023/01/13 06:16:44;;;;;;;19.08;4.20;;;7.90;99.90;;;;;;5013576;28;20384;-74
2023/01/13 06:19:11;;;;;;;33.58;5.22;;;7.90;99.90;;;;;;5013188;28;20125;-73
2023/01/13 06:21:38;;;;;;;24.83;4.63;;;7.90;99.90;;;;;;5016407;28;20128;-73
2023/01/13 06:24:04;;;;;;;30.30;5.70;;;7.90;99.90;;;;;;5016319;28;20041;-73
2023/01/13 06:26:35;;;;;;;24.73;5.38;;;7.90;99.90;;;;;;5013746;28;20041;-73
2023/01/13 06:29:01;;;;;;;34.38;4.88;;;7.90;99.90;;;;;;5012712;28;21874;-74
2023/01/13 06:31:27;;;;;;;25.90;5.55;;;7.90;99.90;;;;;;5014232;28;20070;-73
2023/01/13 06:33:59;;;;;;;27.77;5.60;;;7.90;99.90;;;;;;5014592;28;20077;-73
2023/01/13 06:36:30;;;;;;;31.38;4.82;;;7.90;99.90;;;;;;5011903;28;20072;-72
2023/01/13 06:38:59;;;;;;;28.55;4.50;;;8.10;99.90;;;;;;5012919;28;20038;-73
2023/01/13 06:44:31;;;;;;;30.55;5.10;;;8.00;99.90;;;;;;4991621;28;20073;-73
2023/01/13 06:46:57;;;;;;;22.88;4.70;;;8.00;99.90;;;;;;4991255;28;20043;-72
2023/01/13 06:49:23;;;;;;;24.85;4.80;;;8.00;99.90;;;;;;4990473;28;20123;-72
2023/01/13 06:51:49;;;;;;;26.40;4.85;;;8.00;99.90;;;;;;5001200;28;20479;-73
2023/01/13 06:54:14;;;;;;;29.52;4.35;;;7.90;99.90;;;;;;5017705;28;20491;-73
2023/01/13 06:56:40;;;;;;;26.80;4.78;;;7.80;99.90;;;;;;5014823;28;20045;-74
2023/01/13 06:59:05;;;;;;;27.92;4.95;;;7.80;99.90;;;;;;5010375;28;20064;-74
2023/01/13 07:01:31;;;;;;;32.28;4.55;;;7.80;99.90;;;;;;5011756;28;20034;-73
2023/01/13 07:03:57;;;;;;;32.90;5.60;;;7.70;99.90;;;;;;5011714;28;20046;-73
2023/01/13 07:06:23;;;;;;;33.88;4.80;;;7.70;99.90;;;;;;5009889;28;20529;-73
2023/01/13 07:08:48;;;;;;;24.00;4.57;;;7.60;99.90;;;;;;5011487;28;20077;-73
2023/01/13 07:11:14;;;;;;;27.77;4.82;;;7.60;99.90;;;;;;5012740;28;20065;-73
2023/01/13 07:16:26;;;;;;;29.13;5.20;;;7.50;99.90;;;;;;5012018;28;20042;-73
2023/01/13 07:18:52;;;;;;;33.65;4.95;;;7.50;99.90;;;;;;5013585;28;20038;-73
2023/01/13 07:21:18;;;;;;;26.13;4.10;;;7.50;99.90;;;;;;5011894;28;20380;-73
2023/01/13 07:23:46;;;;;;;31.30;5.43;;;7.40;99.90;;;;;;5013048;28;20041;-74
2023/01/13 07:26:13;;;;;;;33.40;5.03;;;7.40;99.90;;;;;;5007815;28;20042;-74
2023/01/13 07:28:39;;;;;;;23.70;4.32;;;7.40;99.90;;;;;;5006731;28;20855;-73
2023/01/13 07:31:11;;;;;;;23.83;4.28;;;7.30;99.90;;;;;;5011501;28;20125;-72
2023/01/13 07:33:37;;;;;;;32.05;4.75;;;7.30;99.90;;;;;;5005916;28;20129;-72
2023/01/13 07:36:04;;;;;;;27.13;4.95;;;7.30;99.90;;;;;;5011065;28;20145;-72
2023/01/13 07:38:32;;;;;;;34.63;4.13;;;7.30;99.90;;;;;;5009512;28;20084;-73
2023/01/13 07:43:30;;;;;;;38.58;5.13;;;7.30;99.90;;;;;;5010887;28;20049;-73
2023/01/13 07:43:43;;;;;;;32.00;5.18;;;7.20;99.90;;;;;;5011980;28;20475;-73
2023/01/13 07:46:09;;;;;;;30.90;5.22;;;7.20;99.90;;;;;;5010474;28;20082;-72
2023/01/13 07:48:34;;;;;;;30.17;4.40;;;7.10;99.90;;;;;;5009165;28;20054;-73
2023/01/13 07:51:05;;;;;;;28.08;5.40;;;7.10;99.90;;;;;;5006451;28;20479;-73
2023/01/13 07:53:31;;;;;;;30.30;5.15;;;7.10;99.90;;;;;;5005934;28;20044;-73
2023/01/13 07:55:58;;;;;;;31.25;4.78;;;7.10;99.90;;;;;;4999246;28;20046;-70
2023/01/13 07:58:25;;;;;;;33.78;5.50;;;7.10;99.90;;;;;;5010338;28;20069;-73
2023/01/13 08:00:52;;;;;;;33.88;4.88;;;7.10;99.90;;;;;;5013344;28;20042;-72
2023/01/13 08:03:18;;;;;;;27.65;4.38;;;7.10;99.90;;;;;;5012608;28;20196;-73
2023/01/13 08:05:43;;;;;;;34.55;6.15;;;7.10;99.90;;;;;;5012601;28;20443;-72
2023/01/13 08:08:09;;;;;;;37.83;6.32;;;7.10;99.90;;;;;;5010370;28;20054;-72
2023/01/13 08:10:36;;;;;;;34.45;5.20;;;7.10;99.90;;;;;;5012433;28;20124;-73
2023/01/13 08:13:18;;;;;;;32.72;5.07;;;7.60;99.90;;;;;;5011957;28;20411;-73
2023/01/13 08:15:46;;;;;;;27.92;5.07;;;7.20;99.90;;;;;;5012350;28;20044;-74
2023/01/13 08:18:12;;;;;;;36.85;5.53;;;7.20;99.90;;;;;;5010964;28;20057;-72
2023/01/13 08:20:38;;;;;;;29.17;4.90;;;7.30;99.90;;;;;;5011637;28;20411;-73
2023/01/13 08:23:04;;;;;;;32.10;5.38;;;7.30;99.90;;;;;;5009326;28;20039;-73
2023/01/13 08:25:30;;;;;;;33.85;5.65;;;7.30;99.90;;;;;;5012835;28;20034;-74
2023/01/13 08:27:58;;;;;;;30.55;5.38;;;7.30;99.90;;;;;;5009928;28;20087;-73
2023/01/13 08:30:25;;;;;;;;;;;7.30;99.90;;;;;;5010225;28;20096;-73
2023/01/13 08:32:50;;;;;;;33.30;5.25;;;7.30;99.90;;;;;;5007861;28;19921;-72
2023/01/13 08:35:16;;;;;;;30.70;5.35;;;7.30;99.90;;;;;;5008517;28;20089;-73
2023/01/13 08:37:43;;;;;;;32.00;4.75;;;7.30;99.90;;;;;;5012301;28;20092;-72
2023/01/13 08:40:10;;;;;;;38.88;5.75;;;7.30;99.90;;;;;;5011064;28;20821;-72
2023/01/13 08:42:36;;;;;;;31.85;5.18;;;7.40;99.90;;;;;;5012358;28;20042;-71
2023/01/13 08:45:02;;;;;;;31.13;5.50;;;7.40;99.90;;;;;;5002739;28;20632;-72
2023/01/13 08:47:27;;;;;;;35.90;4.25;;;7.40;99.90;;;;;;5009968;28;20471;-72
2023/01/13 08:49:54;;;;;;;31.40;5.93;;;7.50;99.90;;;;;;5008461;28;20041;-73
2023/01/13 08:52:20;;;;;;;30.45;5.40;;;7.50;99.90;;;;;;5008508;28;20336;-71
2023/01/13 08:54:46;;;;;;;40.03;5.20;;;7.60;99.90;;;;;;5011080;28;20041;-73
2023/01/13 08:57:11;;;;;;;35.45;5.93;;;7.50;99.90;;;;;;5014663;28;20108;-71
2023/01/13 08:59:37;;;;;;;29.38;5.38;;;7.60;99.90;;;;;;5010451;28;20994;-72
2023/01/13 09:02:12;;;;;;;33.53;6.28;;;7.60;99.90;;;;;;5011557;28;20070;-72
2023/01/13 09:04:37;;;;;;;29.83;6.20;;;7.60;99.90;;;;;;5011500;28;20056;-71
2023/01/13 09:07:03;;;;;;;36.78;5.75;;;7.60;99.90;;;;;;5014010;28;20065;-72
2023/01/13 09:09:29;;;;;;;31.65;5.18;;;7.60;99.90;;;;;;5014879;28;20045;-71
2023/01/13 09:14:39;;;;;;;27.17;5.40;;;7.50;99.90;;;;;;5012033;28;20085;-71
2023/01/13 09:17:06;;;;;;;34.83;4.60;;;7.50;99.90;;;;;;5013672;28;20096;-71
2023/01/13 09:19:32;;;;;;;34.75;5.15;;;7.50;99.90;;;;;;5013973;28;20046;-70
2023/01/13 09:21:58;;;;;;;32.08;5.80;;;7.40;99.90;;;;;;5012599;28;20053;-72
2023/01/13 09:24:24;;;;;;;30.02;5.18;;;7.40;99.90;;;;;;5014800;28;20541;-71
2023/01/13 09:26:50;;;;;;;27.80;5.03;;;7.50;99.90;;;;;;5013362;28;20125;-71
2023/01/13 09:29:16;;;;;;;30.25;4.22;;;7.30;99.90;;;;;;5014022;28;20053;-71
2023/01/13 09:31:42;;;;;;;28.95;5.00;;;7.30;99.90;;;;;;5012664;28;20053;-72
2023/01/13 09:37:03;;;;;;;26.10;3.92;;;7.30;99.90;;;;;;5006158;28;20058;-71
2023/01/13 09:39:30;;;;;;;28.70;4.93;;;7.20;99.90;;;;;;5011314;28;20697;-72
2023/01/13 09:45:03;;;;;;;30.35;4.72;;;7.20;99.90;;;;;;5001702;28;20104;-71
2023/01/13 09:47:42;;;;;;;25.23;4.40;;;7.20;99.90;;;;;;5019042;28;20529;-70
2023/01/13 09:50:13;;;;;;;44.55;4.93;;;7.20;99.90;;;;;;5013921;28;20046;-72
2023/01/13 09:52:41;;;;;;;37.83;4.82;;;7.20;99.90;;;;;;5020663;28;20049;-72
2023/01/13 09:55:30;;;;;;;25.63;4.57;;;7.20;99.90;;;;;;5011717;28;20535;-74
2023/01/13 09:57:56;;;;;;;33.20;6.03;;;7.20;99.90;;;;;;5006362;28;20038;-70
2023/01/13 10:00:25;;;;;;;44.42;6.38;;;7.20;99.90;;;;;;5014805;28;20033;-73
2023/01/13 10:03:03;;;;;;;35.97;5.25;;;7.20;99.90;;;;;;5012081;28;20068;-73
2023/01/13 10:05:48;;;;;;;34.03;5.18;;;7.20;99.90;;;;;;5015599;28;20136;-73
2023/01/13 10:08:24;;;;;;;37.33;4.25;;;7.10;99.90;;;;;;5012137;28;20480;-76
2023/01/13 10:13:13;;;;;;;35.00;5.30;;;7.10;99.90;;;;;;5007153;28;20484;-73
2023/01/13 10:13:59;;;;;;;28.90;5.00;;;7.10;99.90;;;;;;4994634;28;20129;-73
2023/01/13 10:16:46;;;;;;;38.55;5.82;;;7.10;99.90;;;;;;5001732;28;20077;-73
2023/01/13 10:19:28;;;;;;;33.33;5.40;;;7.00;99.90;;;;;;5005462;28;20042;-75
2023/01/13 10:22:23;;;;;;;36.15;5.10;;;7.10;99.90;;;;;;4997691;28;20045;-74
2023/01/13 10:25:00;;;;;;;32.53;5.88;;;7.20;99.90;;;;;;5007593;28;20081;-75
2023/01/13 10:27:35;;;;;;;39.17;5.88;;;7.20;99.90;;;;;;5000028;28;20488;-74
2023/01/13 10:30:16;;;;;;;30.65;4.70;;;7.30;99.90;;;;;;5007005;28;20683;-74
2023/01/13 10:33:12;;;;;;;30.65;5.32;;;7.30;99.90;;;;;;5005783;28;20038;-74
2023/01/13 10:35:48;;;;;;;28.70;5.22;;;7.30;99.90;;;;;;5009074;28;20431;-74
2023/01/13 10:38:17;;;;;;;34.25;5.32;;;7.40;99.90;;;;;;5007206;28;20084;-73
2023/01/13 10:40:55;;;;;;;22.55;4.53;;;7.40;99.90;;;;;;5011029;28;20083;-73
2023/01/13 10:43:21;;;;;;;29.92;4.95;;;7.40;99.90;;;;;;5011908;28;20053;-73
2023/01/13 10:46:09;;;;;;;38.55;4.28;;;7.40;99.90;;;;;;5010720;28;20046;-73
2023/01/13 10:49:14;;;;;;;26.80;5.03;;;7.40;99.90;;;;;;5008560;28;20038;-74
2023/01/13 10:51:39;;;;;;;32.80;5.03;;;7.50;99.90;;;;;;4991219;28;20083;-73
2023/01/13 10:54:11;;;;;;;27.25;5.30;;;7.60;99.90;;;;;;5010775;28;20124;-73
2023/01/13 10:56:41;;;;;;;30.90;5.03;;;7.60;99.90;;;;;;5013248;28;20046;-73
2023/01/13 10:59:22;;;;;;;31.17;5.75;;;7.70;99.90;;;;;;5013798;28;20501;-74
2023/01/13 11:02:03;;;;;;;27.40;5.22;;;7.70;99.90;;;;;;5011916;28;20052;-73
2023/01/13 11:04:35;;;;;;;36.03;4.85;;;7.70;99.90;;;;;;5010990;28;20127;-73
2023/01/13 11:07:16;;;;;;;33.83;5.40;;;7.70;99.90;;;;;;5011679;28;20057;-74
2023/01/13 11:09:42;;;;;;;38.88;5.57;;;7.70;99.90;;;;;;5013767;28;20470;-73
2023/01/13 11:12:32;;;;;;;28.85;4.85;;;7.70;99.90;;;;;;5015266;28;20050;-73
2023/01/13 11:15:01;;;;;;;28.17;4.13;;;7.70;99.90;;;;;;5014586;28;20052;-73
2023/01/13 11:17:39;;;;;;;29.58;4.75;;;7.80;99.90;;;;;;5009148;28;20534;-73
2023/01/13 11:20:10;;;;;;;32.58;5.68;;;7.80;99.90;;;;;;5009007;28;20092;-74
2023/01/13 11:22:41;;;;;;;35.20;4.50;;;7.80;99.90;;;;;;5010226;28;20510;-73
2023/01/13 11:25:14;;;;;;;33.35;4.95;;;7.80;99.90;;;;;;5010361;28;20439;-73
2023/01/13 11:28:05;;;;;;;31.65;4.80;;;7.80;99.90;;;;;;5011185;28;20050;-72
2023/01/13 11:31:00;;;;;;;22.50;4.68;;;7.80;99.90;;;;;;5009213;28;20418;-73
2023/01/13 11:33:38;;;;;;;31.88;5.75;;;7.70;99.90;;;;;;5007019;28;20064;-73
2023/01/13 11:36:12;;;;;;;34.72;4.32;;;7.70;99.90;;;;;;4988751;28;20183;-73
2023/01/13 11:38:55;;;;;;;28.73;4.80;;;7.60;99.90;;;;;;5008122;28;20446;-73
2023/01/13 11:41:30;;;;;;;24.55;4.47;;;7.80;99.90;;;;;;5010035;28;20151;-73
2023/01/13 11:44:08;;;;;;;31.00;4.10;;;7.90;99.90;;;;;;5008614;28;20068;-73
2023/01/13 11:46:34;;;;;;;26.92;4.10;;;7.90;99.90;;;;;;5006657;28;20096;-73
2023/01/13 11:49:00;;;;;;;25.25;4.63;;;7.90;99.90;;;;;;5007812;28;20452;-73
2023/01/13 11:51:39;;;;;;;22.70;4.32;;;7.90;99.90;;;;;;5027797;28;20422;-73
2023/01/13 11:54:28;;;;;;;22.60;4.60;;;7.90;99.90;;;;;;5010636;28;20072;-73
2023/01/13 11:57:11;;;;;;;26.40;3.88;;;8.00;99.90;;;;;;5010685;28;20046;-72
2023/01/13 11:59:51;;;;;;;20.27;3.80;;;8.10;99.90;;;;;;5009054;28;20527;-72
2023/01/13 12:02:49;;;;;;;22.42;4.28;;;8.00;99.90;;;;;;5009329;28;20092;-73
2023/01/13 12:05:42;;;;;;;22.60;3.63;;;8.10;99.90;;;;;;5012040;28;20068;-72
2023/01/13 12:08:16;;;;;;;22.38;3.75;;;8.10;99.90;;;;;;5003113;28;20042;-73
2023/01/13 12:10:53;;;;;;;23.73;3.83;;;8.10;99.90;;;;;;4996776;28;20089;-72
2023/01/13 12:13:38;;;;;;;19.85;3.45;;;8.00;99.90;;;;;;5012416;28;20081;-72
2023/01/13 12:16:22;;;;;;;19.45;3.70;;;8.00;99.90;;;;;;5008974;28;20049;-72
2023/01/13 12:19:17;;;;;;;19.25;3.50;;;8.00;99.90;;;;;;5011513;28;20129;-72
2023/01/13 12:22:04;;;;;;;22.90;4.97;;;8.00;99.90;;;;;;5004261;28;21956;-72
2023/01/13 12:24:36;;;;;;;20.05;3.90;;;8.10;99.90;;;;;;5009802;28;20144;-73
2023/01/13 12:27:11;;;;;;;26.38;4.28;;;8.10;99.90;;;;;;5011202;28;20364;-72
2023/01/13 12:29:37;;;;;;;28.63;3.75;;;8.10;99.90;;;;;;5012216;28;20038;-73
2023/01/13 12:32:33;;;;;;;26.83;4.40;;;8.10;99.90;;;;;;5011745;28;20077;-73
2023/01/13 12:35:06;;;;;;;18.92;4.25;;;8.20;99.90;;;;;;5007164;28;20099;-73
2023/01/13 12:37:44;;;;;;;22.30;3.05;;;8.20;99.90;;;;;;5010058;28;20042;-72
2023/01/13 12:40:34;;;;;;;25.63;4.45;;;8.20;99.90;;;;;;4999000;28;20495;-72
2023/01/13 12:46:20;;;;;;;27.50;5.15;;;8.30;99.90;;;;;;5009919;28;20088;-72
2023/01/13 12:48:54;;;;;;;28.33;3.75;;;8.30;99.90;;;;;;5010092;28;20077;-73
2023/01/13 12:51:25;;;;;;;20.27;4.05;;;8.40;99.90;;;;;;5001465;28;20053;-72
2023/01/13 12:53:51;;;;;;;22.42;3.65;;;8.40;99.90;;;;;;5008383;28;20074;-72
2023/01/13 12:56:34;;;;;;;14.95;3.17;;;8.40;99.90;;;;;;5012104;28;20042;-72
2023/01/13 12:59:15;;;;;;;19.05;4.22;;;8.40;99.90;;;;;;5011671;28;20026;-72
2023/01/13 13:01:42;;;;;;;19.05;3.75;;;8.40;99.90;;;;;;5007838;28;20042;-72
2023/01/13 13:04:10;;;;;;;20.67;3.67;;;8.40;99.90;;;;;;5027215;28;20462;-72
2023/01/13 13:06:40;;;;;;;14.55;3.25;;;8.50;99.90;;;;;;5004130;28;20411;-72
2023/01/13 13:09:27;;;;;;;20.77;4.15;;;8.50;99.90;;;;;;5000932;28;20081;-72
2023/01/13 13:14:36;;;;;;;19.83;2.90;;;8.50;99.90;;;;;;5010955;28;20046;-72
2023/01/13 13:17:27;;;;;;;21.35;3.22;;;8.50;99.90;;;;;;5003858;28;20183;-72
2023/01/13 13:19:54;;;;;;;19.17;4.30;;;8.50;99.90;;;;;;5011195;28;20049;-72
2023/01/13 13:22:26;;;;;;;21.00;3.55;;;8.50;99.90;;;;;;4996392;28;20141;-72
2023/01/13 13:24:55;;;;;;;18.02;4.10;;;8.50;99.90;;;;;;5011388;28;20414;-72
2023/01/13 13:27:26;;;;;;;18.05;3.75;;;8.50;99.90;;;;;;5009581;28;20529;-72
2023/01/13 13:29:57;;;;;;;19.92;4.15;;;8.50;99.90;;;;;;5009833;28;20092;-72
2023/01/13 13:32:49;;;;;;;18.23;3.10;;;8.60;99.90;;;;;;5009018;28;20046;-72
2023/01/13 13:35:26;;;;;;;18.77;3.08;;;8.60;99.90;;;;;;5007919;28;20513;-73
2023/01/13 13:46:47;;;;;;;14.82;3.00;;;8.40;99.90;;;;;;5000132;28;20050;-72
2023/01/13 13:49:21;;;;;;;17.17;3.20;;;8.30;99.90;;;;;;5013733;28;20038;-73
2023/01/13 13:52:14;;;;;;;17.73;3.42;;;8.30;99.90;;;;;;5014159;28;20509;-73
2023/01/13 13:54:43;;;;;;;16.90;3.35;;;8.30;99.90;;;;;;5009947;28;20148;-72
2023/01/13 13:57:18;;;;;;;22.00;3.45;;;8.30;99.90;;;;;;5015088;28;20038;-72
2023/01/13 13:59:45;;;;;;;13.77;2.83;;;8.30;99.90;;;;;;5016938;28;20560;-73
2023/01/13 14:02:22;;;;;;;18.85;3.08;;;8.20;99.90;;;;;;5008050;28;20045;-72
2023/01/13 14:04:48;;;;;;;21.55;3.10;;;8.30;99.90;;;;;;5004475;28;20052;-72
2023/01/13 14:07:20;;;;;;;17.92;3.03;;;8.30;99.90;;;;;;4998255;28;20407;-72
2023/01/13 14:09:49;;;;;;;14.48;3.25;;;8.30;99.90;;;;;;5007545;28;20100;-72
2023/01/13 14:12:18;;;;;;;23.95;3.38;;;8.20;99.90;;;;;;5007125;28;20121;-72
2023/01/13 14:14:46;;;;;;;13.00;2.95;;;8.30;99.90;;;;;;5009066;28;20052;-72
2023/01/13 14:17:25;;;;;;;15.63;3.17;;;8.30;99.90;;;;;;5013810;28;20045;-72